Tiempo atmosférico en la estación meteorológica de Fuente Palmera, Córdoba (120 m.)



Fecha
DESCASC
Temp. máxima en grados centígrados (hora)
DESCASC
Temp. mínima en grados centígrados (hora)
DESCASC
Temp. media en grados centígrados
DESCASC
Racha de viento máxima en m/sg (hora)
DESCASC
Velocidad máxima media en intervalos de 10 minutos(hora)
DESCASC
Precipitaciones diarias en mm
DESCASC
Precipitaciones de 00:00 a 06:00 en mm
DESCASC
Precipitaciones de 06:00 a 12:00 en mm
DESCASC
Precipitaciones de 12:00 a 18:00 en mm
DESCASC
Precipitaciones de 18:00 a 24:00 en mm
DESCASC
23-06-2019 33.8 (16:30) 16.9 (07:00) 25.3 10 (18:40) 6.11 (19:00) 0 0 0 0 0
22-06-2019 34.6 (17:50) 15.7 (07:10) 25.1 7.78 (18:10) 5 (22:00) 0 0 0 0 0
21-06-2019 32.6 (19:00) 16.7 (07:00) 24.6 7.22 (12:50) 3.33 (12:40) 0 0 0 0 0
20-06-2019 29.6 (19:10) 17.6 (00:00) 23.6 10.28 (15:20) 6.11 (20:40) 0 0 0 0 0
19-06-2019 30.8 (19:10) 18.2 (00:00) 24.5 10 (22:00) 5.56 (21:40) 0 0 0 0 0
18-06-2019 29.1 (17:10) 14.9 (00:00) 22 11.67 (19:40) 6.94 (19:20) 0 0 0 0 0
17-06-2019 32.8 (17:50) 13.8 (00:00) 23.3 10 (19:50) 6.39 (20:10) 0 0 0 0 0
16-06-2019 31.2 (18:10) 14 (00:00) 22.6 10.28 (18:40) 6.67 (20:00) 0 0 0 0 0
15-06-2019 30.3 (19:40) 11.5 (00:00) 20.9 6.67 (16:10) 2.78 (18:30) 0 0 0 0 0
14-06-2019 26.4 (18:30) 16.7 (00:00) 21.6 12.22 (13:50) 7.22 (13:20) 0 0 0 0 0
13-06-2019 29.5 (18:30) 15.6 (00:00) 22.6 9.44 (18:40) 5.28 (20:00) 0 0 0 0 0
12-06-2019 30.4 (18:30) 13.7 (00:00) 22 9.44 (23:20) 5 (23:10) 0 0 0 0 0
11-06-2019 30.1 (18:20) 13.3 (00:00) 21.7 11.11 (14:40) 5.83 (17:10) 0 0 0 0 0
10-06-2019 30.3 (18:50) 16.8 (00:00) 23.5 12.22 (20:10) 7.78 (19:30) 0 0 0 0 0
09-06-2019 30.1 (18:00) 17 (00:00) 23.6 12.78 (20:30) 6.67 (20:20) 0 0 0 0 0
08-06-2019 31.8 (17:00) 14.4 (00:00) 23.1 9.44 (19:30) 5.28 (21:30) 0 0 0 0 0
07-06-2019 28.3 (18:40) 15.9 (00:00) 22.1 7.78 (13:30) 4.72 (09:40) 0 0 0 0 0
06-06-2019 27.9 (17:00) 14.1 (00:00) 21 13.06 (18:00) 6.94 (19:00) 0 0 0 0 0
05-06-2019 26.4 (18:50) 14.8 (00:00) 20.6 10.83 (16:30) 6.11 (03:20) 0 0 0 0 0
04-06-2019 31.8 (18:10) 15.9 (00:00) 23.8 12.78 (20:10) 6.67 (16:50) 0 0 0 0 0
03-06-2019 36.7 (18:00) 16.9 (00:00) 26.8 8.89 (21:50) 5.83 (21:40) 0 0 0 0 0
02-06-2019 36.1 (18:40) 16.7 (00:00) 26.4 8.89 (22:50) 5.56 (23:00) 0 0 0 0 0
01-06-2019 35.1 (18:10) 15.5 (00:00) 25.3 10.28 (21:00) 6.11 (21:10) 0 0 0 0 0
31-05-2019 34.8 (17:30) 15 (00:00) 24.9 9.44 (18:50) 5.28 (19:30) 0 0 0 0 0
30-05-2019 33.6 (17:40) 15.7 (00:00) 24.6 10 (18:40) 5.28 (19:40) 0 0 0 0 0
29-05-2019 33.8 (18:30) 19.4 (00:00) 26.6 11.67 (09:50) 7.22 (11:40) 0 0 0 0 0
28-05-2019 36.2 (18:40) 17.3 (00:00) 26.8 11.39 (20:50) 7.22 (20:50) 0 0 0 0 0
27-05-2019 35.4 (18:10) 14.3 (00:00) 24.9 12.78 (20:40) 7.22 (20:40) 0 0 0 0 0
26-05-2019 32.6 (17:10) 14.7 (00:00) 23.6 7.5 (18:20) 4.44 (19:20) 0 0 0 0 0

Gráficas

Temp. máximas Temp. mínimas Temp. medias Precipitaciones Rachas de viento máximas Velocidades máximas media en intervalos de 10 minutos

Datos horarios

Fecha y hora oficial Temperatura (ºC) Velocidad del viento (km/h) Dirección del viento Racha (km/h) Dirección de racha Precipitación (mm) Presión (hPa) Tendencia (hPa) Humedad (%)
2019-06-24 23:00:00 25.6 13 Sudoeste 27 Sudoeste 0 -- -- 47
2019-06-24 22:00:00 27.8 9 Sudoeste 30 Oeste 0 -- -- 42
2019-06-24 21:00:00 29.9 15 Oeste 30 Oeste 0 -- -- 37
2019-06-24 20:00:00 30.8 16 Oeste 33 Oeste 0 -- -- 35
2019-06-24 19:00:00 31.6 18 Oeste 32 Oeste 0 -- -- 29
2019-06-24 18:00:00 31.8 18 Oeste 33 Oeste 0 -- -- 25
2019-06-24 17:00:00 31.2 15 Oeste 32 Oeste 0 -- -- 30
2019-06-24 16:00:00 31.6 12 Sudoeste 30 Oeste 0 -- -- 29
2019-06-24 15:00:00 30.9 14 Sudoeste 28 Oeste 0 -- -- 29
2019-06-24 14:00:00 29.2 12 Sudoeste 20 Sur 0 -- -- 34
2019-06-24 13:00:00 27 8 Sudoeste 18 Sudoeste 0 -- -- 40
2019-06-24 12:00:00 25.1 7 Sudoeste 15 Oeste 0 -- -- 50
2019-06-24 11:00:00 24 8 Sudoeste 22 Oeste 0 -- -- 54
2019-06-24 10:00:00 22.7 8 Oeste 14 Oeste 0 -- -- 55
2019-06-24 09:00:00 20.6 4 Oeste 7 Oeste 0 -- -- 60
2019-06-24 08:00:00 18.6 0 Calma 4 Oeste 0 -- -- 58
2019-06-24 07:00:00 18.7 3 Noroeste 5 Oeste 0 -- -- 56
2019-06-24 06:00:00 19.4 4 Oeste 6 Noroeste 0 -- -- 53
2019-06-24 05:00:00 20 3 Sudoeste 9 Sur 0 -- -- 51
2019-06-24 04:00:00 20.7 7 Sudoeste 14 Sudoeste 0 -- -- 50
2019-06-24 03:00:00 21.6 6 Sudoeste 19 Sudoeste 0 -- -- 49
2019-06-24 02:00:00 22.8 9 Sudoeste 19 Sudoeste 0 -- -- 50
2019-06-24 01:00:00 24.3 9 Sudoeste 21 Oeste 0 -- -- 48
2019-06-24 00:00:00 25.5 13 Sudoeste 29 Sudoeste 0 -- -- 48
2019-06-23 23:00:00 26.7 12 Sudoeste 34 Oeste 0 -- -- 46
2019-06-23 22:00:00 28.8 17 Oeste 26 Sudoeste 0 -- -- 37
2019-06-23 21:00:00 30.2 14 Oeste 27 Oeste 0 -- -- 32
2019-06-23 20:00:00 31.4 19 Oeste 33 Sudoeste 0 -- -- 28
2019-06-23 19:00:00 32.6 22 Oeste 36 Oeste 0 -- -- 26
2019-06-23 18:00:00 32.9 16 Oeste 31 Oeste 0 -- -- 25
2019-06-23 17:00:00 33.5 16 Oeste 27 Oeste 0 -- -- 21
2019-06-23 16:00:00 33.2 14 Noroeste 26 Sudoeste 0 -- -- 19
2019-06-23 15:00:00 32.5 12 Oeste 26 Sudoeste 0 -- -- 22
2019-06-23 14:00:00 31 11 Sudoeste 30 Sur 0 -- -- 28
2019-06-23 13:00:00 29.2 6 Noroeste 15 Oeste 0 -- -- 31
2019-06-23 12:00:00 27.3 6 Oeste 13 Oeste 0 -- -- 29
2019-06-23 11:00:00 25.2 4 Norte 9 Nordeste 0 -- -- 30
2019-06-23 10:00:00 23.2 4 Nordeste 9 Norte 0 -- -- 35
2019-06-23 09:00:00 21.2 5 Este 8 Nordeste 0 -- -- 42
2019-06-23 08:00:00 18.5 3 Este 7 Sudeste 0 -- -- 54
2019-06-23 07:00:00 16.9 0 Calma 3 Noroeste 0 -- -- 58
2019-06-23 06:00:00 17.5 2 Norte 8 Sur 0 -- -- 54
2019-06-23 05:00:00 18.6 7 Sur 10 Sur 0 -- -- 51
2019-06-23 04:00:00 19.7 3 Noroeste 9 Noroeste 0 -- -- 45
2019-06-23 03:00:00 20.7 3 Oeste 15 Oeste 0 -- -- 43
2019-06-23 02:00:00 21.9 11 Sudoeste 22 Sudoeste 0 -- -- 40
2019-06-23 01:00:00 23.1 10 Sudoeste 26 Sudoeste 0 -- -- 41
2019-06-23 00:00:00 24.8 15 Sudoeste 25 Sudoeste 0 -- -- 38
2019-06-22 23:00:00 27 12 Sudoeste 28 Oeste 0 -- -- 34
2019-06-22 22:00:00 29.1 18 Oeste 27 Sudoeste 0 -- -- 29
2019-06-22 21:00:00 31.8 14 Oeste 23 Oeste 0 -- -- 21
2019-06-22 20:00:00 33.6 14 Oeste 23 Oeste 0 -- -- 18
2019-06-22 19:00:00 34 15 Oeste 28 Oeste 0 -- -- 17
2019-06-22 18:00:00 34.6 13 Oeste 27 Oeste 0 -- -- 17
2019-06-22 17:00:00 34 10 Oeste 23 Oeste 0 -- -- 17
2019-06-22 16:00:00 33.6 9 Noroeste 19 Noroeste 0 -- -- 18
2019-06-22 15:00:00 32.6 12 Oeste 22 Oeste 0 -- -- 20
2019-06-22 14:00:00 31.7 8 Sudoeste 18 Sur 0 -- -- 23
2019-06-22 13:00:00 29.7 6 Oeste 14 Sur 0 -- -- 29
2019-06-22 12:00:00 27.4 6 Nordeste 13 Nordeste 0 -- -- 34
2019-06-22 11:00:00 25.5 6 Nordeste 11 Este 0 -- -- 39
2019-06-22 10:00:00 22.8 4 Nordeste 12 Este 0 -- -- 42
2019-06-22 09:00:00 20 6 Nordeste 10 Nordeste 0 -- -- 52
2019-06-22 08:00:00 17.1 4 Nordeste 8 Nordeste 0 -- -- 61
2019-06-22 07:00:00 15.8 3 Sudeste 5 Este 0 -- -- 66
2019-06-22 06:00:00 15.9 4 Este 6 Sur 0 -- -- 66
2019-06-22 05:00:00 17 0 Calma 8 Sudoeste 0 -- -- 65
2019-06-22 04:00:00 18 2 Sudoeste 6 Sudoeste 0 -- -- 60
2019-06-22 03:00:00 19.3 4 Sur 5 Sudoeste 0 -- -- 55
2019-06-22 02:00:00 20.5 3 Sudoeste 6 Sudoeste 0 -- -- 51
2019-06-22 01:00:00 22.1 4 Sudoeste 12 Oeste 0 -- -- 47
2019-06-22 00:00:00 23.9 8 Sudoeste 26 Oeste 0 -- -- 43
2019-06-21 23:00:00 25.7 11 Sudoeste 21 Sudoeste 0 -- -- 36
2019-06-21 22:00:00 28 12 Sudoeste 21 Sudoeste 0 -- -- 30
2019-06-21 21:00:00 31 6 Oeste 20 Sudoeste 0 -- -- 19
2019-06-21 20:00:00 32.2 10 Sudoeste 19 Sudoeste 0 -- -- 16
2019-06-21 19:00:00 32.6 8 Sudoeste 22 Oeste 0 -- -- 16
2019-06-21 18:00:00 32.1 10 Oeste 22 Oeste 0 -- -- 18
2019-06-21 17:00:00 31.5 12 Oeste 22 Oeste 0 -- -- 19
2019-06-21 16:00:00 30.7 6 Oeste 19 Oeste 0 -- -- 22
2019-06-21 15:00:00 29.2 6 Noroeste 21 Oeste 0 -- -- 23
2019-06-21 14:00:00 27.6 8 Oeste 24 Noroeste 0 -- -- 28
2019-06-21 13:00:00 26 11 Oeste 26 Sudoeste 0 -- -- 33
2019-06-21 12:00:00 24.5 9 Oeste 19 Oeste 0 -- -- 40
2019-06-21 11:00:00 23 8 Oeste 16 Noroeste 0 -- -- 42
2019-06-21 10:00:00 21.3 7 Noroeste 15 Noroeste 0 -- -- 47
2019-06-21 09:00:00 19.2 6 Noroeste 15 Noroeste 0 -- -- 56
2019-06-21 08:00:00 17.5 8 Oeste 12 Oeste 0 -- -- 64
2019-06-21 07:00:00 16.7 8 Sudoeste 13 Sudoeste 0 -- -- 66
2019-06-21 06:00:00 17 5 Sudoeste 12 Sudoeste 0 -- -- 66
2019-06-21 05:00:00 17.1 6 Sudoeste 12 Sudoeste 0 -- -- 68
2019-06-21 04:00:00 17.3 3 Sur 6 Sur 0 -- -- 67
2019-06-21 03:00:00 18.3 2 Sur 10 Oeste 0 -- -- 62
2019-06-21 02:00:00 19.4 6 Oeste 14 Sudoeste 0 -- -- 57
2019-06-21 01:00:00 20.1 9 Oeste 17 Oeste 0 -- -- 54
2019-06-21 00:00:00 21 6 Oeste 24 Oeste 0 -- -- 50
2019-06-20 23:00:00 22.2 11 Sudoeste 23 Sudoeste 0 -- -- 47
2019-06-20 22:00:00 23.6 12 Oeste 35 Sudoeste 0 -- -- 44
2019-06-20 21:00:00 26 19 Oeste 36 Oeste 0 -- -- 40
2019-06-20 20:00:00 29.1 16 Oeste 35 Sudoeste 0 -- -- 33
2019-06-20 19:00:00 29.5 12 Oeste 30 Sudoeste 0 -- -- 28
2019-06-20 18:00:00 29.5 13 Oeste 34 Oeste 0 -- -- 27
2019-06-20 17:00:00 29.1 16 Sudoeste 34 Sudoeste 0 -- -- 28
2019-06-20 16:00:00 28.6 15 Oeste 37 Oeste 0 -- -- 31
2019-06-20 15:00:00 28.2 14 Sudoeste 31 Sudoeste 0 -- -- 36
2019-06-20 14:00:00 27.6 10 Sudoeste 26 Oeste 0 -- -- 37
2019-06-20 13:00:00 26.1 7 Sudoeste 21 Oeste 0 -- -- 44
2019-06-20 12:00:00 24.4 8 Sudoeste 19 Oeste 0 -- -- 51
2019-06-20 11:00:00 22.7 4 Sur 10 Oeste 0 -- -- 57
2019-06-20 10:00:00 21.2 5 Oeste 12 Noroeste 0 -- -- 64
2019-06-20 09:00:00 19.2 3 Oeste 9 Sudoeste 0 -- -- 77
2019-06-20 08:00:00 18.3 4 Sur 9 Oeste 0 -- -- 81
2019-06-20 07:00:00 18.2 3 Sudoeste 10 Sudoeste 0 -- -- 82
2019-06-20 06:00:00 18.1 5 Sudoeste 8 Sudoeste 0 -- -- 82
2019-06-20 05:00:00 17.6 3 Sudoeste 10 Sudoeste 0 -- -- 84
2019-06-20 04:00:00 18.1 5 Sudoeste 14 Sudoeste 0 -- -- 81
2019-06-20 03:00:00 18.6 6 Sudoeste 14 Sudoeste 0 -- -- 77
2019-06-20 02:00:00 19.4 6 Sudoeste 20 Sudoeste 0 -- -- 71
2019-06-20 01:00:00 20.2 9 Sudoeste 22 Sudoeste 0 -- -- 66
2019-06-20 00:00:00 21.3 11 Sudoeste 26 Oeste 0 -- -- 60
2019-06-19 23:00:00 22.7 14 Sudoeste 30 Sudoeste 0 -- -- 55
2019-06-19 22:00:00 24.7 19 Sudoeste 36 Sudoeste 0 -- -- 49
2019-06-19 21:00:00 28.9 16 Sudoeste 27 Sudoeste 0 -- -- 35
2019-06-19 20:00:00 30.4 17 Oeste 28 Oeste 0 -- -- 28
2019-06-19 19:00:00 30.6 14 Sudoeste 29 Oeste 0 -- -- 27
2019-06-19 18:00:00 30.4 14 Oeste 28 Oeste 0 -- -- 28
2019-06-19 17:00:00 29.9 10 Sudoeste 26 Sudoeste 0 -- -- 29
2019-06-19 16:00:00 29 10 Oeste 24 Oeste 0 -- -- 32
2019-06-19 15:00:00 26.8 9 Sur 21 Sudoeste 0 -- -- 37
2019-06-19 14:00:00 25.3 7 Sur 15 Sudoeste 0 -- -- 44
2019-06-19 13:00:00 23.6 7 Sur 15 Sudoeste 0 -- -- 51
2019-06-19 12:00:00 21.7 9 Sur 15 Sur 0 -- -- 60
2019-06-19 11:00:00 19.8 4 Sudoeste 11 Sudoeste 0 -- -- 69
2019-06-19 10:00:00 19.4 6 Sudoeste 13 Sur 0 -- -- 72
2019-06-19 09:00:00 19 6 Sudoeste 16 Sudoeste 0 -- -- 75
2019-06-19 08:00:00 18.5 7 Sudoeste 15 Oeste 0 -- -- 78
2019-06-19 07:00:00 18.4 8 Oeste 18 Oeste 0 -- -- 79
2019-06-19 06:00:00 18.3 12 Oeste 25 Oeste 0 -- -- 80
2019-06-19 05:00:00 18.5 13 Oeste 24 Oeste 0 -- -- 81
2019-06-19 04:00:00 18.4 7 Sudoeste 15 Sudoeste 0 -- -- 81
2019-06-19 03:00:00 18.5 6 Sudoeste 16 Sudoeste 0 -- -- 77
2019-06-19 02:00:00 19.2 5 Oeste 14 Oeste 0 -- -- 70
2019-06-19 01:00:00 20.2 3 Sudoeste 20 Oeste 0 -- -- 63
2019-06-19 00:00:00 21.2 11 Oeste 23 Oeste 0 -- -- 60
2019-06-18 23:00:00 22.1 14 Oeste 23 Oeste 0 -- -- 57
2019-06-18 22:00:00 23.5 14 Oeste 33 Oeste 0 -- -- 51
2019-06-18 21:00:00 25.6 20 Oeste 38 Oeste 0 -- -- 44
2019-06-18 20:00:00 27.2 21 Oeste 42 Oeste 0 -- -- 40
2019-06-18 19:00:00 28.1 23 Oeste 40 Oeste 0 -- -- 37
2019-06-18 18:00:00 28.7 21 Oeste 36 Oeste 0 -- -- 33
2019-06-18 17:00:00 28.8 20 Oeste 34 Oeste 0 -- -- 30
2019-06-18 16:00:00 28.2 17 Oeste 35 Oeste 0 -- -- 23
2019-06-18 15:00:00 27.7 15 Oeste 33 Oeste 0 -- -- 26
2019-06-18 14:00:00 26.3 13 Sudoeste 30 Oeste 0 -- -- 30
2019-06-18 13:00:00 24.2 15 Oeste 30 Oeste 0 -- -- 41
2019-06-18 12:00:00 22.3 13 Oeste 22 Sudoeste 0 -- -- 49
2019-06-18 11:00:00 20 9 Oeste 23 Oeste 0 -- -- 61
2019-06-18 10:00:00 17.4 11 Oeste 18 Oeste 0 -- -- 73
2019-06-18 09:00:00 16.3 13 Oeste 22 Oeste 0 -- -- 80
2019-06-18 08:00:00 15.7 5 Sudoeste 11 Sudoeste 0 -- -- 83
2019-06-18 07:00:00 15.1 4 Sudoeste 9 Sudoeste 0 -- -- 76
2019-06-18 06:00:00 15.8 4 Sudoeste 8 Sudoeste 0 -- -- 69
2019-06-18 05:00:00 16.8 3 Oeste 14 Sudoeste 0 -- -- 58
2019-06-18 04:00:00 18 8 Sudoeste 16 Sudoeste 0 -- -- 51
2019-06-18 03:00:00 19.3 6 Sudoeste 15 Sudoeste 0 -- -- 48
2019-06-18 02:00:00 20.4 9 Sudoeste 20 Sudoeste 0 -- -- 47
2019-06-18 01:00:00 22 10 Sudoeste 20 Sudoeste 0 -- -- 45
2019-06-18 00:00:00 23.2 13 Sudoeste 24 Sudoeste 0 -- -- 39
2019-06-17 23:00:00 24.9 11 Sudoeste 22 Sudoeste 0 -- -- 34
2019-06-17 22:00:00 26.7 13 Oeste 29 Oeste 0 -- -- 32
2019-06-17 21:00:00 29.1 17 Oeste 35 Oeste 0 -- -- 22
2019-06-17 20:00:00 30.7 22 Oeste 36 Oeste 0 -- -- 20
2019-06-17 19:00:00 31.8 19 Oeste 34 Oeste 0 -- -- 19
2019-06-17 18:00:00 32.6 12 Oeste 28 Sudoeste 0 -- -- 16
2019-06-17 17:00:00 32.4 10 Sudoeste 27 Sudoeste 0 -- -- 16
2019-06-17 16:00:00 31.3 9 Oeste 24 Oeste 0 -- -- 18
2019-06-17 15:00:00 30.1 10 Sudoeste 21 Sudoeste 0 -- -- 20
2019-06-17 14:00:00 29 8 Sudoeste 19 Sudoeste 0 -- -- 20
2019-06-17 13:00:00 27.1 5 Sudeste 15 Sudoeste 0 -- -- 27
2019-06-17 12:00:00 25.3 5 Oeste 10 Oeste 0 -- -- 34
2019-06-17 11:00:00 22.8 4 Norte 10 Norte 0 -- -- 41
2019-06-17 10:00:00 21.2 3 Este 8 Nordeste 0 -- -- 48
2019-06-17 09:00:00 18.9 3 Sudeste 6 Nordeste 0 -- -- 55
2019-06-17 08:00:00 16 0 Calma 8 Sudeste 0 -- -- 63
2019-06-17 07:00:00 13.8 2 Este 6 Sur 0 -- -- 72
2019-06-17 06:00:00 15.1 3 Sur 6 Oeste 0 -- -- 67
2019-06-17 05:00:00 15.8 4 Noroeste 6 Oeste 0 -- -- 63
2019-06-17 04:00:00 16.9 3 Sudoeste 8 Sudoeste 0 -- -- 58
2019-06-17 03:00:00 18.2 2 Sur 16 Sudoeste 0 -- -- 54
2019-06-17 02:00:00 19.7 8 Sudoeste 17 Sudoeste 0 -- -- 49
2019-06-17 01:00:00 21.3 8 Sudoeste 16 Oeste 0 -- -- 39
2019-06-17 00:00:00 22.7 6 Oeste 24 Sudoeste 0 -- -- 36
2019-06-16 23:00:00 24.3 10 Sudoeste 21 Sudoeste 0 -- -- 35
2019-06-16 22:00:00 25.9 14 Oeste 28 Oeste 0 -- -- 29
2019-06-16 21:00:00 28.4 15 Oeste 32 Oeste 0 -- -- 27
2019-06-16 20:00:00 29.7 24 Oeste 35 Oeste 0 -- -- 26
2019-06-16 19:00:00 30.9 14 Oeste 37 Oeste 0 -- -- 23
2019-06-16 18:00:00 31 12 Oeste 30 Oeste 0 -- -- 21
2019-06-16 17:00:00 30.6 11 Oeste 22 Oeste 0 -- -- 22
2019-06-16 16:00:00 29.9 11 Oeste 20 Oeste 0 -- -- 21
2019-06-16 15:00:00 28.4 8 Sudoeste 21 Oeste 0 -- -- 24
2019-06-16 14:00:00 27.2 6 Sudoeste 12 Sudoeste 0 -- -- 27
2019-06-16 13:00:00 26.1 3 Sur 14 Nordeste 0 -- -- 30
2019-06-16 12:00:00 25.1 6 Nordeste 13 Nordeste 0 -- -- 34
2019-06-16 11:00:00 23 5 Norte 10 Nordeste 0 -- -- 38
2019-06-16 10:00:00 20.7 6 Nordeste 9 Nordeste 0 -- -- 43
2019-06-16 09:00:00 17.4 5 Este 8 Este 0 -- -- 52
2019-06-16 08:00:00 14.8 4 Este 8 Nordeste 0 -- -- 60
2019-06-16 07:00:00 14.2 4 Este 6 Sudeste 0 -- -- 61
2019-06-16 06:00:00 14.6 4 Sudeste 5 Sudeste 0 -- -- 63
2019-06-16 05:00:00 14.7 2 Este 4 Sudeste 0 -- -- 63
2019-06-16 04:00:00 16.2 2 Sur 4 Sudoeste 0 -- -- 59
2019-06-16 03:00:00 17.5 0 Calma 6 Sur 0 -- -- 52
2019-06-16 02:00:00 19.1 0 Calma 10 Sudoeste 0 -- -- 46
2019-06-16 01:00:00 20.9 10 Sudoeste 21 Sudoeste 0 -- -- 41
2019-06-16 00:00:00 22.3 6 Sudoeste 13 Sudoeste 0 -- -- 36
2019-06-15 23:00:00 24 2 Norte 12 Oeste 0 -- -- 31
2019-06-15 22:00:00 25.8 9 Oeste 12 Oeste 0 -- -- 27
2019-06-15 21:00:00 28.7 6 Oeste 14 Oeste 0 -- -- 22
2019-06-15 20:00:00 30.1 8 Oeste 16 Oeste 0 -- -- 19
2019-06-15 19:00:00 29.7 8 Sudoeste 18 Sudoeste 0 -- -- 19
2019-06-15 18:00:00 29.6 9 Sudoeste 23 Sudoeste 0 -- -- 19
2019-06-15 17:00:00 29.4 4 Noroeste 24 Sudoeste 0 -- -- 20
2019-06-15 16:00:00 27.9 8 Sudoeste 19 Este 0 -- -- 21
2019-06-15 15:00:00 26.3 5 Sudeste 17 Este 0 -- -- 24
2019-06-15 14:00:00 25.6 6 Nordeste 17 Nordeste 0 -- -- 26
2019-06-15 13:00:00 24 4 Sudoeste 13 Sur 0 -- -- 28
2019-06-15 12:00:00 22.8 5 Nordeste 13 Nordeste 0 -- -- 32
2019-06-15 11:00:00 21 8 Nordeste 13 Nordeste 0 -- -- 38
2019-06-15 10:00:00 18.8 4 Norte 8 Noroeste 0 -- -- 47
2019-06-15 09:00:00 16.7 3 Nordeste 6 Norte 0 -- -- 58
2019-06-15 08:00:00 13.4 3 Este 6 Sudeste 0 -- -- 69
2019-06-15 07:00:00 11.5 2 Este 4 Este 0 -- -- 77
2019-06-15 06:00:00 12.1 2 Sudeste 4 Sudeste 0 -- -- 74
2019-06-15 05:00:00 13.1 3 Sudeste 5 Sur 0 -- -- 71
2019-06-15 04:00:00 13.8 3 Sur 6 Sudoeste 0 -- -- 67
2019-06-15 03:00:00 14.9 2 Oeste 12 Oeste 0 -- -- 62
2019-06-15 02:00:00 15.9 6 Sudoeste 16 Sudoeste 0 -- -- 57
2019-06-15 01:00:00 16.9 8 Sudoeste 18 Oeste 0 -- -- 51
2019-06-15 00:00:00 17.9 10 Sudoeste 25 Oeste 0 -- -- 46
2019-06-14 23:00:00 19.2 12 Sudoeste 37 Sudoeste 0 -- -- 43
2019-06-14 22:00:00 20.5 21 Sudoeste 42 Sudoeste 0 -- -- 39
2019-06-14 21:00:00 22.4 23 Sudoeste 42 Oeste 0 -- -- 36
2019-06-14 20:00:00 24.3 21 Sudoeste 44 Sudoeste 0 -- -- 31
2019-06-14 19:00:00 25.8 21 Sudoeste 41 Sudoeste 0 -- -- 26
2019-06-14 18:00:00 26.2 20 Sudoeste 36 Oeste 0 -- -- 21
2019-06-14 17:00:00 25.6 20 Oeste 40 Oeste 0 -- -- 22
2019-06-14 16:00:00 24.9 17 Sudoeste 42 Sudoeste 0 -- -- 24
2019-06-14 15:00:00 24.2 17 Sudoeste 42 Oeste 0 -- -- 26
2019-06-14 14:00:00 23.5 20 Oeste 44 Sudoeste 0 -- -- 30
2019-06-14 13:00:00 23.1 19 Oeste 42 Oeste 0 -- -- 34
2019-06-14 12:00:00 21.7 17 Sudoeste 39 Oeste 0 -- -- 36
2019-06-14 11:00:00 21 13 Sudoeste 35 Sudoeste 0 -- -- 45
2019-06-14 10:00:00 18.9 18 Sudoeste 33 Sudoeste 0 -- -- 54
2019-06-14 09:00:00 18.2 13 Sudoeste 26 Oeste 0 -- -- 58
2019-06-14 08:00:00 17 11 Oeste 24 Oeste 0 -- -- 65
2019-06-14 07:00:00 17.3 11 Oeste 23 Oeste 0 -- -- 58
2019-06-14 06:00:00 17.5 8 Oeste 15 Oeste 0 -- -- 54
2019-06-14 05:00:00 18.1 10 Oeste 19 Oeste 0 -- -- 51
2019-06-14 04:00:00 19.1 6 Oeste 17 Oeste 0 -- -- 48
2019-06-14 03:00:00 19.6 10 Oeste 23 Sudoeste 0 -- -- 44
2019-06-14 02:00:00 19.4 12 Sudoeste 35 Sudoeste 0 -- -- 44
2019-06-14 01:00:00 20.7 18 Sudoeste 35 Sudoeste 0 -- -- 42
2019-06-14 00:00:00 23.4 14 Sudoeste 29 Oeste 0 -- -- 25
2019-06-13 23:00:00 24.6 14 Oeste 31 Oeste 0 -- -- 22
2019-06-13 22:00:00 25.7 19 Oeste 33 Oeste 0 -- -- 23
2019-06-13 21:00:00 26.6 13 Oeste 29 Oeste 0 -- -- 26
2019-06-13 20:00:00 27.7 19 Oeste 34 Oeste 0 -- -- 27
2019-06-13 19:00:00 28.9 17 Oeste 34 Oeste 0 -- -- 29
2019-06-13 18:00:00 29.3 15 Oeste 31 Oeste 0 -- -- 29
2019-06-13 17:00:00 29 13 Oeste 27 Oeste 0 -- -- 30
2019-06-13 16:00:00 28.9 11 Oeste 27 Sudoeste 0 -- -- 31
2019-06-13 15:00:00 28.5 8 Sudoeste 24 Sudoeste 0 -- -- 31
2019-06-13 14:00:00 27 9 Sudoeste 23 Sur 0 -- -- 36
2019-06-13 13:00:00 25.7 11 Sudoeste 25 Sur 0 -- -- 40
2019-06-13 12:00:00 24.3 8 Sudoeste 17 Sudoeste 0 -- -- 48
2019-06-13 11:00:00 22.4 4 Sudoeste 14 Oeste 0 -- -- 55
2019-06-13 10:00:00 19.9 5 Noroeste 10 Norte 0 -- -- 69
2019-06-13 09:00:00 18.2 3 Nordeste 5 Nordeste 0 -- -- 73
2019-06-13 08:00:00 16.7 2 Sudeste 4 Sudeste 0 -- -- 78
2019-06-13 07:00:00 15.8 2 Norte 4 Norte 0 -- -- 83
2019-06-13 06:00:00 16.6 2 Sudoeste 6 Sudoeste 0 -- -- 80
2019-06-13 05:00:00 17.1 0 Calma 9 Sudoeste 0 -- -- 77
2019-06-13 04:00:00 17.9 5 Oeste 16 Sudoeste 0 -- -- 72
2019-06-13 03:00:00 18.8 8 Sudoeste 20 Sudoeste 0 -- -- 66
2019-06-13 02:00:00 19.8 10 Sudoeste 19 Sur 0 -- -- 60
2019-06-13 01:00:00 20.5 12 Sudoeste 32 Sudoeste 0 -- -- 62
2019-06-13 00:00:00 22.3 17 Sudoeste 34 Sudoeste 0 -- -- 53
2019-06-12 23:00:00 24.4 16 Sur 26 Sur 0 -- -- 37
2019-06-12 22:00:00 26 11 Sur 23 Sur 0 -- -- 31
2019-06-12 21:00:00 29 8 Oeste 16 Oeste 0 -- -- 23
2019-06-12 20:00:00 30.1 9 Oeste 19 Oeste 0 -- -- 22
2019-06-12 19:00:00 30.3 10 Oeste 26 Oeste 0 -- -- 22
2019-06-12 18:00:00 29.8 9 Sur 25 Sur 0 -- -- 21
2019-06-12 17:00:00 29.7 11 Sur 21 Sur 0 -- -- 20
2019-06-12 16:00:00 29.1 12 Sur 25 Sur 0 -- -- 22
2019-06-12 15:00:00 28.7 11 Sur 22 Sudoeste 0 -- -- 23
2019-06-12 14:00:00 28.1 12 Sudeste 23 Sur 0 -- -- 26
2019-06-12 13:00:00 26.9 15 Sur 28 Sur 0 -- -- 29
2019-06-12 12:00:00 24.4 6 Sudoeste 19 Sur 0 -- -- 40
2019-06-12 11:00:00 23.3 6 Sur 12 Sur 0 -- -- 46
2019-06-12 10:00:00 20.9 5 Nordeste 9 Este 0 -- -- 48
2019-06-12 09:00:00 17.8 6 Nordeste 10 Nordeste 0 -- -- 55
2019-06-12 08:00:00 15 3 Nordeste 6 Nordeste 0 -- -- 67
2019-06-12 07:00:00 13.8 3 Sur 10 Sur 0 -- -- 74
2019-06-12 06:00:00 14.8 6 Este 8 Sudeste 0 -- -- 60
2019-06-12 05:00:00 15.3 3 Sudeste 6 Sudeste 0 -- -- 67
2019-06-12 04:00:00 15.8 2 Este 4 Este 0 -- -- 68
2019-06-12 03:00:00 16.8 0 Calma 5 Sudeste 0 -- -- 65
2019-06-12 02:00:00 18 4 Sur 12 Sudoeste 0 -- -- 61
2019-06-12 01:00:00 19.4 6 Sur 21 Sudoeste 0 -- -- 56
2019-06-12 00:00:00 20.7 13 Sudoeste 23 Oeste 0 -- -- 52
2019-06-11 23:00:00 22.5 9 Sudoeste 18 Sudoeste 0 -- -- 35
2019-06-11 22:00:00 25 7 Oeste 18 Noroeste 0 -- -- 18
2019-06-11 21:00:00 27.4 12 Noroeste 30 Noroeste 0 -- -- 15
2019-06-11 20:00:00 29 15 Noroeste 30 Noroeste 0 -- -- 13
2019-06-11 19:00:00 29.9 13 Noroeste 27 Noroeste 0 -- -- 13
2019-06-11 18:00:00 29.7 14 Noroeste 31 Noroeste 0 -- -- 17
2019-06-11 17:00:00 29.5 19 Norte 31 Norte 0 -- -- 17
2019-06-11 16:00:00 29.7 16 Noroeste 31 Noroeste 0 -- -- 19
2019-06-11 15:00:00 28.2 15 Oeste 40 Oeste 0 -- -- 24
2019-06-11 14:00:00 26.6 15 Sudoeste 28 Sudoeste 0 -- -- 27
2019-06-11 13:00:00 25.3 13 Oeste 26 Oeste 0 -- -- 28
2019-06-11 12:00:00 23.6 10 Noroeste 23 Noroeste 0 -- -- 30
2019-06-11 11:00:00 21.3 8 Noroeste 17 Noroeste 0 -- -- 33
2019-06-11 10:00:00 19.1 9 Noroeste 19 Oeste 0 -- -- 37
2019-06-11 09:00:00 17.5 9 Noroeste 15 Noroeste 0 -- -- 41
2019-06-11 08:00:00 14.7 5 Oeste 8 Oeste 0 -- -- 76
2019-06-11 07:00:00 13.3 3 Oeste 7 Noroeste 0 -- -- 81
2019-06-11 06:00:00 14 3 Oeste 11 Sudoeste 0 -- -- 79
2019-06-11 05:00:00 14.8 0 Calma 9 Sudoeste 0 -- -- 74
2019-06-11 04:00:00 15.5 6 Sudoeste 13 Oeste 0 -- -- 71
2019-06-11 03:00:00 16.3 8 Oeste 19 Oeste 0 -- -- 68
2019-06-11 02:00:00 16.9 9 Oeste 18 Oeste 0 -- -- 64
2019-06-11 01:00:00 17.7 12 Oeste 26 Oeste 0 -- -- 59
2019-06-11 00:00:00 18.7 13 Oeste 31 Sudoeste 0 -- -- 54
2019-06-10 23:00:00 19.8 17 Sudoeste 36 Oeste 0 -- -- 49
2019-06-10 22:00:00 21.9 17 Sudoeste 36 Sudoeste 0 -- -- 44
2019-06-10 21:00:00 24.8 19 Sudoeste 44 Sudoeste 0 -- -- 34
2019-06-10 20:00:00 27.7 24 Sudoeste 42 Oeste 0 -- -- 26
2019-06-10 19:00:00 30.2 17 Oeste 42 Oeste 0 -- -- 17
2019-06-10 18:00:00 30.1 14 Sudoeste 29 Oeste 0 -- -- 17
2019-06-10 17:00:00 29.5 15 Sudoeste 31 Oeste 0 -- -- 18
2019-06-10 16:00:00 28.9 14 Oeste 31 Oeste 0 -- -- 19
2019-06-10 15:00:00 27.8 14 Oeste 27 Sudoeste 0 -- -- 22
2019-06-10 14:00:00 26.6 10 Oeste 23 Oeste 0 -- -- 24
2019-06-10 13:00:00 25.1 9 Oeste 25 Oeste 0 -- -- 27
2019-06-10 12:00:00 23.7 7 Oeste 22 Noroeste 0 -- -- 33
2019-06-10 11:00:00 22.2 12 Noroeste 20 Oeste 0 -- -- 37
2019-06-10 10:00:00 19.8 10 Oeste 20 Oeste 0 -- -- 45
2019-06-10 09:00:00 18.5 6 Oeste 18 Norte 0 -- -- 48
2019-06-10 08:00:00 17.4 9 Noroeste 16 Noroeste 0 -- -- 49
2019-06-10 07:00:00 16.9 8 Noroeste 15 Noroeste 0 -- -- 49
2019-06-10 06:00:00 17.6 10 Noroeste 17 Noroeste 0 -- -- 46
2019-06-10 05:00:00 17.8 6 Norte 14 Norte 0 -- -- 46
2019-06-10 04:00:00 17.1 3 Sudoeste 21 Sudoeste 0 -- -- 52
2019-06-10 03:00:00 17.1 6 Sudoeste 13 Sudoeste 0 -- -- 55
2019-06-10 02:00:00 18.1 4 Sudoeste 19 Oeste 0 -- -- 52
2019-06-10 01:00:00 18.7 10 Sudoeste 22 Oeste 0 -- -- 50
2019-06-10 00:00:00 19.4 8 Oeste 23 Oeste 0 -- -- 46
2019-06-09 23:00:00 20.5 8 Oeste 28 Oeste 0 -- -- 41
2019-06-09 22:00:00 22.2 13 Oeste 39 Sudoeste 0 -- -- 36
2019-06-09 21:00:00 25.1 19 Sudoeste 46 Sudoeste 0 -- -- 27
2019-06-09 20:00:00 28.1 22 Sudoeste 41 Sudoeste 0 -- -- 21
2019-06-09 19:00:00 29.8 19 Oeste 38 Sudoeste 0 -- -- 16
2019-06-09 18:00:00 30.1 14 Sudoeste 35 Oeste 0 -- -- 18
2019-06-09 17:00:00 29.6 13 Sudoeste 32 Oeste 0 -- -- 22
2019-06-09 16:00:00 28.3 12 Oeste 30 Oeste 0 -- -- 24
2019-06-09 15:00:00 27.6 14 Oeste 30 Oeste 0 -- -- 27
2019-06-09 14:00:00 26.5 16 Oeste 30 Oeste 0 -- -- 32
2019-06-09 13:00:00 25.6 13 Oeste 25 Oeste 0 -- -- 40
2019-06-09 12:00:00 24.1 10 Oeste 28 Oeste 0 -- -- 49
2019-06-09 11:00:00 22.8 13 Oeste 25 Oeste 0 -- -- 52
2019-06-09 10:00:00 21.4 11 Oeste 22 Sudoeste 0 -- -- 52
2019-06-09 09:00:00 20.2 5 Oeste 8 Oeste 0 -- -- 51
2019-06-09 08:00:00 17.8 3 Noroeste 9 Noroeste 0 -- -- 58
2019-06-09 07:00:00 17.2 6 Oeste 15 Sudoeste 0 -- -- 59
2019-06-09 06:00:00 18.1 7 Sudoeste 12 Sudoeste 0 -- -- 51
2019-06-09 05:00:00 19.1 6 Sudoeste 12 Oeste 0 -- -- 47
2019-06-09 04:00:00 20.3 8 Sudoeste 25 Sudoeste 0 -- -- 42
2019-06-09 03:00:00 21.1 14 Sudoeste 22 Sudoeste 0 -- -- 38
2019-06-09 02:00:00 21.9 7 Sudoeste 21 Sudoeste 0 -- -- 36
2019-06-09 01:00:00 23.2 14 Sudoeste 30 Oeste 0 -- -- 34
2019-06-09 00:00:00 24.2 12 Sudoeste 25 Sudoeste 0 -- -- 34
2019-06-08 23:00:00 25.2 10 Sudoeste 28 Sudoeste 0 -- -- 33
2019-06-08 22:00:00 26.4 13 Oeste 33 Oeste 0 -- -- 30
2019-06-08 21:00:00 27.4 11 Sudoeste 27 Sur 0 -- -- 27
2019-06-08 20:00:00 28.8 16 Sur 34 Oeste 0 -- -- 24
2019-06-08 19:00:00 30.4 12 Oeste 23 Oeste 0 -- -- 19
2019-06-08 18:00:00 31.1 9 Oeste 25 Sudoeste 0 -- -- 17
2019-06-08 17:00:00 31.8 14 Oeste 24 Oeste 0 -- -- 16
2019-06-08 16:00:00 31.7 10 Noroeste 28 Oeste 0 -- -- 16
2019-06-08 15:00:00 30.8 10 Sudoeste 21 Sudoeste 0 -- -- 16
2019-06-08 14:00:00 29.8 6 Sudeste 23 Sur 0 -- -- 17
2019-06-08 13:00:00 28 5 Sudeste 15 Sudeste 0 -- -- 18
2019-06-08 12:00:00 26.1 6 Este 17 Este 0 -- -- 18
2019-06-08 11:00:00 23.9 6 Este 14 Nordeste 0 -- -- 20
2019-06-08 10:00:00 21.2 4 Nordeste 10 Nordeste 0 -- -- 25
2019-06-08 09:00:00 18.7 4 Nordeste 5 Norte 0 -- -- 30
2019-06-08 08:00:00 16.4 0 Calma 5 Nordeste 0 -- -- 33
2019-06-08 07:00:00 14.4 2 Nordeste 5 Nordeste 0 -- -- 36
2019-06-08 06:00:00 15.2 0 Calma 7 Noroeste 0 -- -- 34
2019-06-08 05:00:00 16.9 5 Noroeste 7 Norte 0 -- -- 29
2019-06-08 04:00:00 17.2 5 Norte 9 Nordeste 0 -- -- 28
2019-06-08 03:00:00 17.7 3 Nordeste 9 Norte 0 -- -- 27
2019-06-08 02:00:00 19 4 Norte 10 Nordeste 0 -- -- 24
2019-06-08 01:00:00 19.8 8 Nordeste 15 Norte 0 -- -- 22
2019-06-08 00:00:00 20.7 8 Norte 14 Norte 0 -- -- 18
2019-06-07 23:00:00 22.1 8 Nordeste 16 Norte 0 -- -- 17
2019-06-07 22:00:00 24.1 10 Norte 18 Norte 0 -- -- 15
2019-06-07 21:00:00 26.7 8 Noroeste 19 Noroeste 0 -- -- 14
2019-06-07 20:00:00 28.3 9 Noroeste 19 Oeste 0 -- -- 12
2019-06-07 19:00:00 27.9 6 Sudeste 17 Sur 0 -- -- 13
2019-06-07 18:00:00 28 5 Sudoeste 16 Este 0 -- -- 13
2019-06-07 17:00:00 26.6 6 Sur 19 Sudeste 0 -- -- 15
2019-06-07 16:00:00 26.1 5 Sudoeste 25 Noroeste 0 -- -- 15
2019-06-07 15:00:00 24.9 7 Sudeste 18 Sudeste 0 -- -- 18
2019-06-07 14:00:00 23.7 5 Oeste 28 Este 0 -- -- 23
2019-06-07 13:00:00 22.6 9 Noroeste 24 Oeste 0 -- -- 24
2019-06-07 12:00:00 21.4 6 Oeste 21 Norte 0 -- -- 29
2019-06-07 11:00:00 20 9 Nordeste 22 Norte 0 -- -- 34
2019-06-07 10:00:00 18 14 Norte 24 Norte 0 -- -- 40
2019-06-07 09:00:00 16.4 8 Norte 21 Norte 0 -- -- 49
2019-06-07 08:00:00 16 12 Norte 21 Norte 0 -- -- 56
2019-06-07 07:00:00 16 14 Norte 24 Noroeste 0 -- -- 63
2019-06-07 06:00:00 16.7 10 Noroeste 20 Oeste 0 -- -- 69
2019-06-07 05:00:00 17 7 Sudoeste 16 Sudoeste 0 -- -- 68
2019-06-07 04:00:00 16.4 8 Sudoeste 19 Oeste 0 -- -- 68
2019-06-07 03:00:00 16.3 8 Sudoeste 17 Sudoeste 0 -- -- 68
2019-06-07 02:00:00 16.8 7 Sudoeste 21 Sudoeste 0 -- -- 65
2019-06-07 01:00:00 17.4 7 Sudoeste 25 Sudoeste 0 -- -- 60
2019-06-07 00:00:00 18.2 13 Sudoeste 35 Sudoeste 0 -- -- 53
2019-06-06 23:00:00 19.3 16 Sudoeste 35 Oeste 0 -- -- 46
2019-06-06 22:00:00 20.8 14 Sudoeste 37 Sudoeste 0 -- -- 36
2019-06-06 21:00:00 23.2 20 Sudoeste 39 Sudoeste 0 -- -- 26
2019-06-06 20:00:00 26.1 17 Sudoeste 39 Sudoeste 0 -- -- 11
2019-06-06 19:00:00 26.6 25 Oeste 44 Oeste 0 -- -- 11
2019-06-06 18:00:00 27.2 22 Oeste 47 Sudoeste 0 -- -- 13
2019-06-06 17:00:00 27.9 19 Sudoeste 37 Oeste 0 -- -- 16
2019-06-06 16:00:00 27.2 19 Oeste 34 Sudoeste 0 -- -- 16
2019-06-06 15:00:00 26 10 Sudoeste 27 Oeste 0 -- -- 19
2019-06-06 14:00:00 25.1 15 Oeste 30 Oeste 0 -- -- 21
2019-06-06 13:00:00 24.2 6 Sudoeste 23 Sur 0 -- -- 23
2019-06-06 12:00:00 22.4 4 Sudeste 14 Sudoeste 0 -- -- 26
2019-06-06 11:00:00 20.9 5 Norte 10 Nordeste 0 -- -- 28
2019-06-06 10:00:00 18.8 4 Nordeste 11 Noroeste 0 -- -- 34
2019-06-06 09:00:00 16.6 4 Norte 10 Noroeste 0 -- -- 39
2019-06-06 08:00:00 15 5 Noroeste 10 Noroeste 0 -- -- 42
2019-06-06 07:00:00 14.3 5 Noroeste 13 Norte 0 -- -- 43
2019-06-06 06:00:00 15.1 5 Noroeste 14 Norte 0 -- -- 40
2019-06-06 05:00:00 15.7 4 Noroeste 14 Noroeste 0 -- -- 39
2019-06-06 04:00:00 15.8 6 Oeste 13 Oeste 0 -- -- 42
2019-06-06 03:00:00 15.2 5 Oeste 16 Sudoeste 0 -- -- 56
2019-06-06 02:00:00 17 10 Sudoeste 20 Sudoeste 0 -- -- 51
2019-06-06 01:00:00 17.5 10 Sudoeste 16 Sudoeste 0 -- -- 35
2019-06-06 00:00:00 18.3 4 Oeste 8 Oeste 0 -- -- 31
2019-06-05 23:00:00 20 6 Oeste 10 Noroeste 0 -- -- 27
2019-06-05 22:00:00 21.9 5 Noroeste 11 Noroeste 0 -- -- 22
2019-06-05 21:00:00 23.7 12 Noroeste 19 Noroeste 0 -- -- 18
2019-06-05 20:00:00 25.1 14 Noroeste 31 Noroeste 0 -- -- 18
2019-06-05 19:00:00 26.2 11 Oeste 29 Noroeste 0 -- -- 17
2019-06-05 18:00:00 25.7 12 Noroeste 30 Noroeste 0 -- -- 19
2019-06-05 17:00:00 25 15 Noroeste 39 Norte 0 -- -- 17
2019-06-05 16:00:00 25.6 8 Noroeste 31 Noroeste 0 -- -- 18
2019-06-05 15:00:00 25.2 13 Norte 26 Norte 0 -- -- 20
2019-06-05 14:00:00 23.7 13 Noroeste 28 Noroeste 0 -- -- 23
2019-06-05 13:00:00 22.3 13 Noroeste 29 Oeste 0 -- -- 27
2019-06-05 12:00:00 21 12 Noroeste 26 Noroeste 0 -- -- 32
2019-06-05 11:00:00 19.4 13 Noroeste 26 Norte 0 -- -- 37
2019-06-05 10:00:00 17.8 9 Noroeste 21 Noroeste 0 -- -- 42
2019-06-05 09:00:00 16.4 12 Noroeste 21 Oeste 0 -- -- 47
2019-06-05 08:00:00 15.5 11 Oeste 21 Oeste 0 -- -- 49
2019-06-05 07:00:00 14.9 12 Oeste 24 Oeste 0 -- -- 48
2019-06-05 06:00:00 15.7 10 Oeste 30 Oeste 0 -- -- 43
2019-06-05 05:00:00 16.7 11 Noroeste 32 Noroeste 0 -- -- 40
2019-06-05 04:00:00 18 13 Noroeste 35 Noroeste 0 -- -- 38
2019-06-05 03:00:00 20.3 12 Noroeste 30 Noroeste 0 -- -- 47
2019-06-05 02:00:00 20.9 17 Noroeste 31 Oeste 0 -- -- 46
2019-06-05 01:00:00 21.3 10 Noroeste 26 Norte 0 -- -- 50
2019-06-05 00:00:00 21.9 10 Oeste 26 Sudoeste 0 -- -- 53
2019-06-04 23:00:00 22.1 16 Oeste 44 Sudoeste 0 -- -- 55
2019-06-04 22:00:00 23.5 22 Sudoeste 42 Sudoeste 0 -- -- 51
2019-06-04 21:00:00 26.2 22 Sudoeste 46 Sudoeste 0 -- -- 40
2019-06-04 20:00:00 28.9 21 Sudoeste 41 Sudoeste 0 -- -- 37
2019-06-04 19:00:00 30.7 21 Oeste 44 Oeste 0 -- -- 29
2019-06-04 18:00:00 31.6 21 Oeste 42 Oeste 0 -- -- 25
2019-06-04 17:00:00 31.3 24 Oeste 40 Oeste 0 -- -- 24
2019-06-04 16:00:00 31.2 18 Oeste 36 Oeste 0 -- -- 24
2019-06-04 15:00:00 30.6 18 Oeste 36 Oeste 0 -- -- 24
2019-06-04 14:00:00 29.4 15 Sudoeste 29 Oeste 0 -- -- 27
2019-06-04 13:00:00 28 12 Oeste 26 Sudoeste 0 -- -- 29
2019-06-04 12:00:00 25.8 8 Sudoeste 22 Oeste 0 -- -- 34
2019-06-04 11:00:00 23.8 8 Oeste 14 Sudoeste 0 -- -- 38
2019-06-04 10:00:00 21.7 6 Noroeste 12 Noroeste 0 -- -- 41
2019-06-04 09:00:00 20.3 7 Sudoeste 12 Sudoeste 0 -- -- 41
2019-06-04 08:00:00 17.1 4 Este 6 Este 0 -- -- 52
2019-06-04 07:00:00 15.9 2 Este 4 Este 0 -- -- 53
2019-06-04 06:00:00 16.7 2 Sudeste 4 Sur 0 -- -- 50
2019-06-04 05:00:00 17.6 0 Calma 4 Sur 0 -- -- 47
2019-06-04 04:00:00 18.3 3 Sudoeste 5 Sur 0 -- -- 44
2019-06-04 03:00:00 19.9 4 Oeste 12 Sudoeste 0 -- -- 40
2019-06-04 02:00:00 21.1 3 Oeste 7 Sudoeste 0 -- -- 37
2019-06-04 01:00:00 23.1 6 Sudoeste 17 Sudoeste 0 -- -- 31
2019-06-04 00:00:00 25.3 9 Sudoeste 30 Oeste 0 -- -- 24
2019-06-03 23:00:00 27.3 13 Oeste 30 Oeste 0 -- -- 22
2019-06-03 22:00:00 29.5 17 Oeste 32 Oeste 0 -- -- 20
2019-06-03 21:00:00 32.8 12 Oeste 25 Oeste 0 -- -- 13
2019-06-03 20:00:00 34.7 19 Oeste 30 Oeste 0 -- -- 10
2019-06-03 19:00:00 35.8 19 Oeste 31 Oeste 0 -- -- 10
2019-06-03 18:00:00 36.7 11 Oeste 27 Oeste 0 -- -- 8
2019-06-03 17:00:00 36.1 11 Sudoeste 21 Sudoeste 0 -- -- 9
2019-06-03 16:00:00 35.4 8 Noroeste 22 Sudoeste 0 -- -- 10
2019-06-03 15:00:00 34.4 6 Oeste 18 Sudoeste 0 -- -- 12
2019-06-03 14:00:00 32.5 8 Sudoeste 17 Sudoeste 0 -- -- 15
2019-06-03 13:00:00 30.6 5 Noroeste 13 Sudoeste 0 -- -- 18
2019-06-03 12:00:00 28 4 Norte 10 Este 0 -- -- 24
2019-06-03 11:00:00 25.8 5 Sudeste 12 Nordeste 0 -- -- 27
2019-06-03 10:00:00 23.5 6 Nordeste 11 Nordeste 0 -- -- 34
2019-06-03 09:00:00 20.8 4 Nordeste 6 Norte 0 -- -- 44
2019-06-03 08:00:00 18.2 2 Nordeste 6 Este 0 -- -- 49
2019-06-03 07:00:00 17 4 Este 5 Este 0 -- -- 51
2019-06-03 06:00:00 18.3 2 Norte 13 Sur 0 -- -- 49
2019-06-03 05:00:00 19.2 9 Sur 13 Sur 0 -- -- 45
2019-06-03 04:00:00 20.2 7 Sur 9 Sur 0 -- -- 40
2019-06-03 03:00:00 21.6 5 Sudoeste 9 Sudoeste 0 -- -- 36
2019-06-03 02:00:00 23.2 9 Sudoeste 18 Sudoeste 0 -- -- 31
2019-06-03 01:00:00 24.1 9 Sudoeste 17 Sudoeste 0 -- -- 27
2019-06-03 00:00:00 25.3 12 Sur 31 Sur 0 -- -- 22
2019-06-02 23:00:00 26.7 20 Sur 32 Sur 0 -- -- 17
2019-06-02 22:00:00 29.2 16 Sur 24 Sur 0 -- -- 14
2019-06-02 21:00:00 33.2 10 Sudoeste 22 Sudoeste 0 -- -- 9
2019-06-02 20:00:00 35.3 12 Sur 23 Sudoeste 0 -- -- 9
2019-06-02 19:00:00 36 9 Sur 18 Sur 0 -- -- 9
2019-06-02 18:00:00 35.7 7 Sudeste 20 Sur 0 -- -- 10
2019-06-02 17:00:00 35.4 10 Sur 19 Sur 0 -- -- 11
2019-06-02 16:00:00 34.7 4 Nordeste 16 Este 0 -- -- 13
2019-06-02 15:00:00 32.9 5 Nordeste 19 Sudeste 0 -- -- 14
2019-06-02 14:00:00 31.7 6 Nordeste 19 Este 0 -- -- 17
2019-06-02 13:00:00 29.9 6 Sudeste 17 Sudeste 0 -- -- 20
2019-06-02 12:00:00 28.4 11 Sudeste 23 Sudeste 0 -- -- 20
2019-06-02 11:00:00 26.7 10 Sudeste 19 Este 0 -- -- 25
2019-06-02 10:00:00 22.9 6 Este 14 Nordeste 0 -- -- 33
2019-06-02 09:00:00 20 8 Este 19 Nordeste 0 -- -- 37
2019-06-02 08:00:00 17.7 6 Este 12 Este 0 -- -- 42
2019-06-02 07:00:00 16.7 6 Este 12 Sudeste 0 -- -- 42
2019-06-02 06:00:00 17 9 Sudeste 17 Sudeste 0 -- -- 42
2019-06-02 05:00:00 17 8 Sudeste 12 Sudeste 0 -- -- 41
2019-06-02 04:00:00 17.7 4 Este 7 Este 0 -- -- 38
2019-06-02 03:00:00 18.4 0 Calma 7 Sudoeste 0 -- -- 37
2019-06-02 02:00:00 20.3 3 Sur 12 Sur 0 -- -- 31
2019-06-02 01:00:00 21.5 3 Sur 18 Sur 0 -- -- 28
2019-06-02 00:00:00 22.8 4 Sur 18 Sudoeste 0 -- -- 24
2019-06-01 23:00:00 24.1 14 Sur 32 Sur 0 -- -- 22
2019-06-01 22:00:00 25.8 15 Sur 37 Sur 0 -- -- 19
2019-06-01 21:00:00 28.5 21 Sur 37 Sur 0 -- -- 17
2019-06-01 20:00:00 31.9 18 Sur 33 Sudoeste 0 -- -- 15
2019-06-01 19:00:00 33.6 18 Sudoeste 32 Sudoeste 0 -- -- 14
2019-06-01 18:00:00 34.8 10 Sudoeste 22 Sudoeste 0 -- -- 15
2019-06-01 17:00:00 34.6 12 Sur 21 Sur 0 -- -- 14
2019-06-01 16:00:00 33.9 10 Sur 21 Sudeste 0 -- -- 15
2019-06-01 15:00:00 32.5 10 Sudeste 21 Sudeste 0 -- -- 17
2019-06-01 14:00:00 31.1 8 Este 16 Sudeste 0 -- -- 20
2019-06-01 13:00:00 29.2 6 Sur 16 Sudeste 0 -- -- 23
2019-06-01 12:00:00 27.4 6 Nordeste 15 Sudeste 0 -- -- 28
2019-06-01 11:00:00 25.4 7 Este 15 Este 0 -- -- 34
2019-06-01 10:00:00 22.4 6 Nordeste 12 Nordeste 0 -- -- 41
2019-06-01 09:00:00 19.6 4 Nordeste 6 Norte 0 -- -- 45
2019-06-01 08:00:00 17.1 2 Este 10 Nordeste 0 -- -- 50
2019-06-01 07:00:00 15.5 5 Este 8 Este 0 -- -- 53
2019-06-01 06:00:00 16.2 5 Este 8 Sudeste 0 -- -- 50
2019-06-01 05:00:00 17 0 Calma -- -- 0 -- -- 48
2019-06-01 04:00:00 17.9 2 Sudeste 6 Sudeste 0 -- -- 44
2019-06-01 03:00:00 18.9 3 Este 6 Este 0 -- -- 42
2019-06-01 02:00:00 20 3 Noroeste 4 Noroeste 0 -- -- 38
2019-06-01 01:00:00 21.1 3 Noroeste 9 Oeste 0 -- -- 35
2019-06-01 00:00:00 22.3 6 Oeste 12 Oeste 0 -- -- 33
2019-05-31 23:00:00 24 6 Oeste 14 Oeste 0 -- -- 28
2019-05-31 22:00:00 25.9 9 Sur 31 Sur 0 -- -- 25
2019-05-31 21:00:00 28.3 18 Sur 31 Sudoeste 0 -- -- 21
2019-05-31 20:00:00 31.5 17 Sudoeste 33 Sudoeste 0 -- -- 18
2019-05-31 19:00:00 33.6 18 Sudoeste 34 Sudoeste 0 -- -- 16
2019-05-31 18:00:00 34.5 13 Sudoeste 23 Sudoeste 0 -- -- 15
2019-05-31 17:00:00 34.4 9 Sur 21 Sudeste 0 -- -- 13
2019-05-31 16:00:00 33.6 8 Sudoeste 21 Sudeste 0 -- -- 14
2019-05-31 15:00:00 32.7 9 Sur 19 Este 0 -- -- 15
2019-05-31 14:00:00 31.5 8 Sur 20 Sur 0 -- -- 17
2019-05-31 13:00:00 29.2 6 Nordeste 17 Sudeste 0 -- -- 23
2019-05-31 12:00:00 27.2 11 Sudeste 18 Este 0 -- -- 26
2019-05-31 11:00:00 24.9 10 Este 21 Este 0 -- -- 32
2019-05-31 10:00:00 22.4 5 Este 11 Este 0 -- -- 36
2019-05-31 09:00:00 19.4 4 Nordeste 10 Nordeste 0 -- -- 44
2019-05-31 08:00:00 17 5 Este 11 Este 0 -- -- 50
2019-05-31 07:00:00 15.3 8 Sudeste 12 Sudeste 0 -- -- 53
2019-05-31 06:00:00 15.6 6 Este 8 Este 0 -- -- 58
2019-05-31 05:00:00 16.3 5 Este 10 Este 0 -- -- 53
2019-05-31 04:00:00 17.4 4 Este 9 Este 0 -- -- 48
2019-05-31 03:00:00 17.8 3 Este 6 Nordeste 0 -- -- 48
2019-05-31 02:00:00 18.2 2 Nordeste 7 Norte 0 -- -- 47
2019-05-31 01:00:00 19.5 5 Noroeste 8 Oeste 0 -- -- 43
2019-05-31 00:00:00 20.6 3 Noroeste 9 Sur 0 -- -- 41
2019-05-30 23:00:00 21.9 5 Sudoeste 17 Sur 0 -- -- 37
2019-05-30 22:00:00 23.6 10 Sur 26 Sur 0 -- -- 34
2019-05-30 21:00:00 26.2 17 Sur 31 Sur 0 -- -- 29
2019-05-30 20:00:00 29.4 18 Sur 30 Sur 0 -- -- 25
2019-05-30 19:00:00 31.4 15 Sur 36 Sur 0 -- -- 23
2019-05-30 18:00:00 32.5 14 Sur 30 Nordeste 0 -- -- 21
2019-05-30 17:00:00 32.9 14 Sudeste 28 Sudeste 0 -- -- 14
2019-05-30 16:00:00 32.3 12 Este 24 Este 0 -- -- 18
2019-05-30 15:00:00 30.6 9 Este 22 Este 0 -- -- 22
2019-05-30 14:00:00 29.1 7 Nordeste 22 Este 0 -- -- 27
2019-05-30 13:00:00 27.7 6 Este 17 Este 0 -- -- 30
2019-05-30 12:00:00 26.4 7 Nordeste 17 Sudeste 0 -- -- 33
2019-05-30 11:00:00 25 9 Sudeste 18 Este 0 -- -- 36
2019-05-30 10:00:00 23.2 9 Sur 16 Sudeste 0 -- -- 40
2019-05-30 09:00:00 20.2 5 Nordeste 8 Nordeste 0 -- -- 52
2019-05-30 08:00:00 17.4 3 Este 7 Este 0 -- -- 58
2019-05-30 07:00:00 15.8 4 Este 6 Este 0 -- -- 61
2019-05-30 06:00:00 16.2 2 Este 4 Noroeste 0 -- -- 60
2019-05-30 05:00:00 16.9 0 Calma 5 Sudoeste 0 -- -- 55
2019-05-30 04:00:00 18.1 2 Sudoeste 9 Sur 0 -- -- 51
2019-05-30 03:00:00 19.2 4 Sur 14 Sur 0 -- -- 46
2019-05-30 02:00:00 20.5 9 Sur 22 Sur 0 -- -- 41
2019-05-30 01:00:00 22.3 10 Sur 17 Sur 0 -- -- 36
2019-05-30 00:00:00 24.3 9 Sudeste 13 Sudeste 0 -- -- 19
2019-05-29 23:00:00 25.8 10 Este 16 Este 0 -- -- 18
2019-05-29 22:00:00 28.2 10 Este 19 Este 0 -- -- 16
2019-05-29 21:00:00 31.6 13 Este 26 Este 0 -- -- 13
2019-05-29 20:00:00 33.1 18 Este 29 Este 0 -- -- 12
2019-05-29 19:00:00 33.5 13 Este 31 Este 0 -- -- 12
2019-05-29 18:00:00 33.7 14 Este 33 Este 0 -- -- 12
2019-05-29 17:00:00 33.3 15 Sudeste 30 Este 0 -- -- 12
2019-05-29 16:00:00 32.8 10 Este 28 Sudeste 0 -- -- 13
2019-05-29 15:00:00 31.6 13 Este 33 Nordeste 0 -- -- 14
2019-05-29 14:00:00 30.2 20 Nordeste 39 Este 0 -- -- 15
2019-05-29 13:00:00 29.3 21 Este 37 Este 0 -- -- 16
2019-05-29 12:00:00 27.8 24 Este 41 Este 0 -- -- 18
2019-05-29 11:00:00 26.7 22 Este 40 Este 0 -- -- 19
2019-05-29 10:00:00 24.6 26 Este 42 Nordeste 0 -- -- 22
2019-05-29 09:00:00 23.1 15 Este 27 Este 0 -- -- 26
2019-05-29 08:00:00 20.6 13 Este 21 Este 0 -- -- 31
2019-05-29 07:00:00 19.6 10 Este 16 Este 0 -- -- 32
2019-05-29 06:00:00 20.3 10 Este 17 Este 0 -- -- 31
2019-05-29 05:00:00 20.1 11 Este 15 Este 0 -- -- 36
2019-05-29 04:00:00 21 9 Este 13 Sudeste 0 -- -- 38
2019-05-29 03:00:00 21.3 8 Sudeste 13 Sudeste 0 -- -- 40
2019-05-29 02:00:00 22.4 8 Sudeste 19 Oeste 0 -- -- 44
2019-05-29 01:00:00 24.2 5 Noroeste 21 Sudoeste 0 -- -- 39
2019-05-29 00:00:00 25.4 5 Oeste 13 Oeste 0 -- -- 31
2019-05-28 23:00:00 27.1 4 Oeste 23 Oeste 0 -- -- 27
2019-05-28 22:00:00 29.3 14 Sudoeste 36 Oeste 0 -- -- 23
2019-05-28 21:00:00 32.2 25 Oeste 41 Oeste 0 -- -- 24
2019-05-28 20:00:00 35.7 13 Oeste 24 Oeste 0 -- -- 15
2019-05-28 19:00:00 36.2 10 Oeste 23 Oeste 0 -- -- 15
2019-05-28 18:00:00 36.1 7 Oeste 21 Sudoeste 0 -- -- 15
2019-05-28 17:00:00 35.4 6 Sudoeste 18 Oeste 0 -- -- 16
2019-05-28 16:00:00 34.4 6 Este 18 Este 0 -- -- 18
2019-05-28 15:00:00 33.9 6 Este 18 Sudoeste 0 -- -- 19
2019-05-28 14:00:00 32.7 8 Noroeste 13 Noroeste 0 -- -- 21
2019-05-28 13:00:00 31.1 6 Sur 12 Este 0 -- -- 23
2019-05-28 12:00:00 28.7 5 Sudeste 12 Este 0 -- -- 29
2019-05-28 11:00:00 26.9 5 Este 12 Este 0 -- -- 34
2019-05-28 10:00:00 24.6 4 Nordeste 9 Nordeste 0 -- -- 42
2019-05-28 09:00:00 22 3 Nordeste 6 Nordeste 0 -- -- 52
2019-05-28 08:00:00 19.1 0 Calma 2 Norte 0 -- -- 58
2019-05-28 07:00:00 17.5 0 Calma 7 Noroeste 0 -- -- 61
2019-05-28 06:00:00 19.3 4 Sudoeste 17 Sudoeste 0 -- -- 54
2019-05-28 05:00:00 18.9 6 Sudoeste 9 Sudoeste 0 -- -- 55
2019-05-28 04:00:00 19.4 2 Oeste 6 Sudoeste 0 -- -- 54
2019-05-28 03:00:00 20.2 3 Sudoeste 8 Sudoeste 0 -- -- 53
2019-05-28 02:00:00 21.6 5 Sudoeste 13 Sudoeste 0 -- -- 48
2019-05-28 01:00:00 23.1 7 Oeste 21 Sudoeste 0 -- -- 43
2019-05-28 00:00:00 25 11 Sudoeste 22 Oeste 0 -- -- 36
2019-05-27 23:00:00 27.4 12 Oeste 25 Sudoeste 0 -- -- 26
2019-05-27 22:00:00 29.5 13 Oeste 36 Sudoeste 0 -- -- 24
2019-05-27 21:00:00 31.8 24 Oeste 46 Oeste 0 -- -- 23
2019-05-27 20:00:00 33.2 15 Oeste 31 Sudoeste 0 -- -- 18
2019-05-27 19:00:00 34.2 19 Oeste 32 Oeste 0 -- -- 15
2019-05-27 18:00:00 35.2 10 Sudoeste 25 Oeste 0 -- -- 15
2019-05-27 17:00:00 34.4 9 Noroeste 27 Sudoeste 0 -- -- 16
2019-05-27 16:00:00 34.6 10 Oeste 20 Sudoeste 0 -- -- 15
2019-05-27 15:00:00 33.4 9 Sudoeste 20 Sudoeste 0 -- -- 16
2019-05-27 14:00:00 31.7 7 Sudoeste 14 Oeste 0 -- -- 19
2019-05-27 13:00:00 29.6 5 Sur 11 Sudoeste 0 -- -- 23
2019-05-27 12:00:00 26.9 6 Este 13 Nordeste 0 -- -- 30
2019-05-27 11:00:00 24.4 5 Sur 10 Sudeste 0 -- -- 35
2019-05-27 10:00:00 21.7 5 Nordeste 10 Nordeste 0 -- -- 44
2019-05-27 09:00:00 19.2 6 Nordeste 10 Nordeste 0 -- -- 51
2019-05-27 08:00:00 16.1 6 Este 10 Este 0 -- -- 60
2019-05-27 07:00:00 14.5 4 Este 6 Este 0 -- -- 67
2019-05-27 06:00:00 15.4 3 Este 5 Este 0 -- -- 62
2019-05-27 05:00:00 16.7 0 Calma 4 Sur 0 -- -- 57
2019-05-27 04:00:00 17.6 2 Sudeste 3 Sudeste 0 -- -- 55
2019-05-27 03:00:00 18.5 0 Calma 9 Sudoeste 0 -- -- 51
2019-05-27 02:00:00 19.9 3 Sur 20 Oeste 0 -- -- 47
2019-05-27 01:00:00 21.4 11 Sudoeste 24 Sudoeste 0 -- -- 43
2019-05-27 00:00:00 23.8 12 Oeste 21 Oeste 0 -- -- 35
2019-05-26 23:00:00 25.6 4 Este 7 Este 0 -- -- 24
2019-05-26 22:00:00 28 3 Nordeste 13 Nordeste 0 -- -- 21
2019-05-26 21:00:00 30.6 8 Nordeste 21 Nordeste 0 -- -- 16
2019-05-26 20:00:00 31.9 14 Nordeste 27 Nordeste 0 -- -- 14
2019-05-26 19:00:00 32.2 13 Nordeste 27 Nordeste 0 -- -- 13
2019-05-26 18:00:00 32.5 15 Nordeste 23 Este 0 -- -- 12
2019-05-26 17:00:00 32.1 10 Nordeste 20 Nordeste 0 -- -- 15
2019-05-26 16:00:00 31.3 8 Norte 19 Noroeste 0 -- -- 16
2019-05-26 15:00:00 30.2 6 Norte 22 Noroeste 0 -- -- 22
2019-05-26 14:00:00 29.5 10 Noroeste 21 Norte 0 -- -- 23
2019-05-26 13:00:00 28.1 5 Noroeste 15 Sudoeste 0 -- -- 27
2019-05-26 12:00:00 26.1 7 Nordeste 17 Nordeste 0 -- -- 32
2019-05-26 11:00:00 23.7 5 Sudoeste 12 Sur 0 -- -- 41
2019-05-26 10:00:00 21.8 4 Sudeste 12 Este 0 -- -- 49
2019-05-26 09:00:00 19.2 4 Sudeste 8 Nordeste 0 -- -- 49
2019-05-26 08:00:00 15.8 3 Este 5 Este 0 -- -- 65
2019-05-26 07:00:00 14.7 4 Este 9 Sur 0 -- -- 70
2019-05-26 06:00:00 15.5 6 Sur 10 Sur 0 -- -- 65
2019-05-26 05:00:00 16.1 6 Sur 9 Norte 0 -- -- 71
2019-05-26 04:00:00 17.5 4 Sudoeste 7 Sudoeste 0 -- -- 66
2019-05-26 03:00:00 18.7 3 Sudoeste 10 Sudoeste 0 -- -- 61
2019-05-26 02:00:00 19.9 8 Sudoeste 21 Sudoeste 0 -- -- 58
2019-05-26 01:00:00 20.8 15 Sur 24 Sur 0 -- -- 35
2019-05-26 00:00:00 22.4 6 Nordeste 12 Norte 0 -- -- 28